createdAt,value
2018-12-15T00:01:35.995Z,16.43
2018-12-15T00:04:07.637Z,14.77
2018-12-15T00:06:44.740Z,17.70
2018-12-15T00:09:15.512Z,15.80
2018-12-15T00:11:46.037Z,15.47
2018-12-15T00:14:13.440Z,14.93
2018-12-15T00:16:44.178Z,14.67
2018-12-15T00:19:11.604Z,15.53
2018-12-15T00:21:39.956Z,15.73
2018-12-15T00:24:07.346Z,15.23
2018-12-15T00:26:40.344Z,18.60
2018-12-15T00:29:07.748Z,15.07
2018-12-15T00:31:35.152Z,16.00
2018-12-15T00:34:08.594Z,17.80
2018-12-15T00:36:35.991Z,16.40
2018-12-15T00:39:05.060Z,13.27
2018-12-15T00:41:32.467Z,13.77
2018-12-15T00:43:59.863Z,16.30
2018-12-15T00:46:27.284Z,15.93
2018-12-15T00:48:54.690Z,16.73
2018-12-15T00:51:22.497Z,14.93
2018-12-15T00:53:49.906Z,15.30
2018-12-15T00:56:17.328Z,15.57
2018-12-15T00:58:51.171Z,16.07
2018-12-15T01:01:25.236Z,15.43
2018-12-15T01:03:57.362Z,18.03
2018-12-15T01:06:28.501Z,17.07
2018-12-15T01:08:57.441Z,16.90
2018-12-15T01:11:39.471Z,16.77
2018-12-15T01:14:10.505Z,16.20
2018-12-15T01:16:39.665Z,15.77
2018-12-15T01:19:10.631Z,14.73
2018-12-15T01:21:44.534Z,15.97
2018-12-15T01:24:14.896Z,17.17
2018-12-15T01:26:48.868Z,15.27
2018-12-15T01:29:20.042Z,16.83
2018-12-15T01:34:28.035Z,17.90
2018-12-15T01:37:01.153Z,17.70
2018-12-15T01:39:32.404Z,18.80
2018-12-15T01:42:06.340Z,17.23
2018-12-15T01:44:46.257Z,15.50
2018-12-15T01:47:19.681Z,17.27
2018-12-15T01:49:49.000Z,15.17
2018-12-15T01:52:21.952Z,17.53
2018-12-15T01:54:53.056Z,16.27
2018-12-15T02:00:20.091Z,14.43
2018-12-15T02:02:47.489Z,16.53
2018-12-15T02:05:14.893Z,15.77
2018-12-15T02:07:42.280Z,16.70
2018-12-15T02:10:09.781Z,16.40
2018-12-15T02:12:37.236Z,15.70
2018-12-15T02:15:06.156Z,16.70
2018-12-15T02:17:33.873Z,15.80
2018-12-15T02:20:01.420Z,16.60
2018-12-15T02:22:28.857Z,15.23
2018-12-15T02:24:56.274Z,13.37
2018-12-15T02:27:23.655Z,14.97
2018-12-15T02:29:51.083Z,18.20
2018-12-15T02:32:18.502Z,15.27
2018-12-15T02:34:45.892Z,15.53
2018-12-15T02:37:13.288Z,16.67
2018-12-15T02:39:40.681Z,15.23
2018-12-15T02:42:08.097Z,15.37
2018-12-15T02:44:35.490Z,19.07
2018-12-15T02:47:02.934Z,15.13
2018-12-15T02:49:31.049Z,16.10
2018-12-15T02:51:58.445Z,17.77
2018-12-15T02:54:25.837Z,18.37
2018-12-15T02:56:53.243Z,18.07
2018-12-15T02:59:20.630Z,16.00
2018-12-15T03:01:48.106Z,15.87
2018-12-15T03:04:15.584Z,15.83
2018-12-15T03:06:42.994Z,17.97
2018-12-15T03:09:10.442Z,15.87
2018-12-15T03:11:37.957Z,16.60
2018-12-15T03:14:05.370Z,16.40
2018-12-15T03:16:32.831Z,17.63
2018-12-15T03:19:04.129Z,15.77
2018-12-15T03:21:31.522Z,16.27
2018-12-15T03:23:58.932Z,14.73
2018-12-15T03:26:26.323Z,15.83
2018-12-15T03:28:54.666Z,16.63
2018-12-15T03:31:22.063Z,14.33
2018-12-15T03:33:49.480Z,18.07
2018-12-15T03:36:17.104Z,15.07
2018-12-15T03:38:44.522Z,17.67
2018-12-15T03:41:11.908Z,14.90
2018-12-15T03:43:39.307Z,16.53
2018-12-15T03:46:06.695Z,16.90
2018-12-15T03:48:34.125Z,16.87
2018-12-15T03:51:01.651Z,17.70
2018-12-15T03:53:29.093Z,15.33
2018-12-15T03:55:56.497Z,16.37
2018-12-15T03:58:23.893Z,15.37
2018-12-15T04:00:51.368Z,16.13
2018-12-15T04:03:18.785Z,16.00
2018-12-15T04:05:46.168Z,15.27
2018-12-15T04:08:13.580Z,17.40
2018-12-15T04:10:40.968Z,14.33
2018-12-15T04:13:09.305Z,14.83
2018-12-15T04:15:36.889Z,16.00
2018-12-15T04:18:04.287Z,15.13
2018-12-15T04:20:35.750Z,16.40
2018-12-15T04:23:03.239Z,16.43
2018-12-15T04:25:30.627Z,16.90
2018-12-15T04:27:58.020Z,14.60
2018-12-15T04:30:25.427Z,16.20
2018-12-15T04:32:52.808Z,16.10
2018-12-15T04:35:20.208Z,15.00
2018-12-15T04:37:47.596Z,14.93
2018-12-15T04:40:15.046Z,15.70
2018-12-15T04:42:42.440Z,16.63
2018-12-15T04:45:09.832Z,16.37
2018-12-15T04:47:37.226Z,15.60
2018-12-15T04:50:04.685Z,13.83
2018-12-15T04:52:32.061Z,14.90
2018-12-15T04:54:59.534Z,14.87
2018-12-15T04:57:26.957Z,17.30
2018-12-15T04:59:54.407Z,15.87
2018-12-15T05:02:21.796Z,15.93
2018-12-15T05:04:49.197Z,17.23
2018-12-15T05:07:16.576Z,17.00
2018-12-15T05:09:43.968Z,14.17
2018-12-15T05:12:11.367Z,15.33
2018-12-15T05:14:38.765Z,15.77
2018-12-15T05:17:07.069Z,15.73
2018-12-15T05:19:34.457Z,14.33
2018-12-15T05:22:02.399Z,14.43
2018-12-15T05:24:29.797Z,17.37
2018-12-15T05:26:57.186Z,16.37
2018-12-15T05:29:24.576Z,16.40
2018-12-15T05:31:51.968Z,15.93
2018-12-15T05:34:19.357Z,15.97
2018-12-15T05:36:46.761Z,13.73
2018-12-15T05:39:14.152Z,17.23
2018-12-15T05:41:41.555Z,16.03
2018-12-15T05:44:09.043Z,15.80
2018-12-15T05:46:36.444Z,18.67
2018-12-15T05:49:03.827Z,16.20
2018-12-15T05:51:31.232Z,16.50
2018-12-15T05:53:58.627Z,16.10
2018-12-15T05:56:26.024Z,17.33
2018-12-15T05:58:53.411Z,17.63
2018-12-15T06:01:20.803Z,17.17
2018-12-15T06:03:48.204Z,17.00
2018-12-15T06:06:15.604Z,17.23
2018-12-15T06:08:42.995Z,18.17
2018-12-15T06:11:10.444Z,17.03
2018-12-15T06:13:37.855Z,16.33
2018-12-15T06:16:05.253Z,16.73
2018-12-15T06:18:32.635Z,19.20
2018-12-15T06:21:00.037Z,17.17
2018-12-15T06:23:27.436Z,16.57
2018-12-15T06:28:53.829Z,19.87
2018-12-15T06:31:21.216Z,17.93
2018-12-15T06:33:48.615Z,18.23
2018-12-15T06:36:16.019Z,16.27
2018-12-15T06:38:43.496Z,19.60
2018-12-15T06:41:11.841Z,19.03
2018-12-15T06:43:39.495Z,18.33
2018-12-15T06:46:07.204Z,18.73
2018-12-15T06:48:38.118Z,15.40
2018-12-15T06:51:04.016Z,18.13
2018-12-15T06:53:31.420Z,17.63
2018-12-15T06:55:59.899Z,22.53
2018-12-15T06:58:27.279Z,19.87
2018-12-15T07:00:54.673Z,22.33
2018-12-15T07:03:22.072Z,17.00
2018-12-15T07:05:49.470Z,18.00
2018-12-15T07:08:16.919Z,18.47
2018-12-15T07:10:44.292Z,19.33
2018-12-15T07:13:11.713Z,19.70
2018-12-15T07:15:39.175Z,21.33
2018-12-15T07:18:07.496Z,19.00
2018-12-15T07:20:34.904Z,18.63
2018-12-15T07:23:02.312Z,18.70
2018-12-15T07:25:29.833Z,19.17
2018-12-15T07:27:57.230Z,19.37
2018-12-15T07:30:24.884Z,19.93
2018-12-15T07:32:52.823Z,18.03
2018-12-15T07:35:20.217Z,19.23
2018-12-15T07:37:47.811Z,19.87
2018-12-15T07:40:15.315Z,20.27
2018-12-15T07:42:42.810Z,23.23
2018-12-15T07:45:10.209Z,19.17
2018-12-15T07:47:46.515Z,19.83
2018-12-15T07:50:14.144Z,18.30
2018-12-15T07:52:43.448Z,18.93
2018-12-15T07:55:10.843Z,20.30
2018-12-15T07:57:38.454Z,20.43
2018-12-15T08:00:09.047Z,18.73
2018-12-15T08:02:36.504Z,19.03
2018-12-15T08:05:05.221Z,21.17
2018-12-15T08:07:34.706Z,21.40
2018-12-15T08:10:04.219Z,23.20
2018-12-15T08:12:39.595Z,19.80
2018-12-15T08:15:07.537Z,21.13
2018-12-15T08:17:34.931Z,19.23
2018-12-15T08:20:04.717Z,20.17
2018-12-15T08:22:32.112Z,20.50
2018-12-15T08:24:59.552Z,19.60
2018-12-15T08:27:27.096Z,21.43
2018-12-15T08:29:54.475Z,19.20
2018-12-15T08:32:21.880Z,19.40
2018-12-15T08:34:49.295Z,21.17
2018-12-15T08:37:16.740Z,22.03
2018-12-15T08:39:44.142Z,20.50
2018-12-15T08:42:11.545Z,19.67
2018-12-15T08:44:39.017Z,20.03
2018-12-15T08:47:09.878Z,17.80
2018-12-15T08:49:37.407Z,20.70
2018-12-15T08:52:04.791Z,20.67
2018-12-15T08:54:32.183Z,20.37
2018-12-15T08:56:59.580Z,19.13
2018-12-15T08:59:27.942Z,20.27
2018-12-15T09:01:55.401Z,19.00
2018-12-15T09:04:22.784Z,21.80
2018-12-15T09:06:50.235Z,19.27
2018-12-15T09:09:17.663Z,20.27
2018-12-15T09:11:46.062Z,19.20
2018-12-15T09:14:13.447Z,20.43
2018-12-15T09:16:40.968Z,19.90
2018-12-15T09:19:11.236Z,21.37
2018-12-15T09:21:37.758Z,19.07
2018-12-15T09:24:05.143Z,22.83
2018-12-15T09:26:32.535Z,20.27
2018-12-15T09:28:59.937Z,23.63
2018-12-15T09:31:29.294Z,21.80
2018-12-15T09:33:56.683Z,20.97
2018-12-15T09:36:24.088Z,22.20
2018-12-15T09:38:51.485Z,20.00
2018-12-15T09:41:18.974Z,20.83
2018-12-15T09:43:51.155Z,21.37
2018-12-15T09:46:18.656Z,20.80
2018-12-15T09:48:51.971Z,22.43
2018-12-15T09:51:19.380Z,22.20
2018-12-15T09:53:46.793Z,21.73
2018-12-15T09:56:14.204Z,18.87
2018-12-15T09:58:41.616Z,20.87
2018-12-15T10:01:09.114Z,21.60
2018-12-15T10:03:36.846Z,19.67
2018-12-15T10:06:06.516Z,20.27
2018-12-15T10:08:34.881Z,20.30
2018-12-15T10:11:03.829Z,21.07
2018-12-15T10:13:31.263Z,20.30
2018-12-15T10:15:58.734Z,16.70
2018-12-15T10:18:26.135Z,19.33
2018-12-15T10:20:53.560Z,21.73
2018-12-15T10:23:20.965Z,20.37
2018-12-15T10:25:48.372Z,21.37
2018-12-15T10:28:17.739Z,19.37
2018-12-15T10:30:50.644Z,17.73
2018-12-15T10:33:18.066Z,19.43
2018-12-15T10:35:46.436Z,18.77
2018-12-15T10:38:13.836Z,21.33
2018-12-15T10:40:41.282Z,19.43
2018-12-15T10:43:08.689Z,20.40
2018-12-15T10:45:36.097Z,20.13
2018-12-15T10:48:04.508Z,20.03
2018-12-15T10:50:31.968Z,20.40
2018-12-15T10:52:59.364Z,18.33
2018-12-15T10:55:27.737Z,18.17
2018-12-15T10:57:56.209Z,18.47
2018-12-15T11:00:26.431Z,17.67
2018-12-15T11:02:59.299Z,16.23
2018-12-15T11:05:26.707Z,20.30
2018-12-15T11:07:54.127Z,17.90
2018-12-15T11:10:25.065Z,18.97
2018-12-15T11:12:55.589Z,16.10
2018-12-15T11:15:23.967Z,18.33
2018-12-15T11:17:53.548Z,20.03
2018-12-15T11:20:21.979Z,17.90
2018-12-15T11:22:49.392Z,19.83
2018-12-15T11:25:16.804Z,17.60
2018-12-15T11:27:45.157Z,17.67
2018-12-15T11:30:12.568Z,16.53
2018-12-15T11:32:39.951Z,15.37
2018-12-15T11:35:07.414Z,18.57
2018-12-15T11:37:34.916Z,15.83
2018-12-15T11:40:08.456Z,17.37
2018-12-15T11:42:36.977Z,16.30
2018-12-15T11:45:05.376Z,15.33
2018-12-15T11:47:33.775Z,16.60
2018-12-15T11:50:01.186Z,15.73
2018-12-15T11:52:28.611Z,16.70
2018-12-15T11:54:56.026Z,19.00
2018-12-15T11:57:31.359Z,18.13
2018-12-15T11:59:59.717Z,16.00
2018-12-15T12:02:31.836Z,16.50
2018-12-15T12:05:01.251Z,18.53
2018-12-15T12:07:28.752Z,17.50
2018-12-15T12:09:56.336Z,16.17
2018-12-15T12:12:24.679Z,17.03
2018-12-15T12:14:52.115Z,14.53
2018-12-15T12:17:21.577Z,15.07
2018-12-15T12:19:50.375Z,17.30
2018-12-15T12:22:18.073Z,17.57
2018-12-15T12:24:49.134Z,18.27
2018-12-15T12:27:16.535Z,16.23
2018-12-15T12:29:47.328Z,17.53
2018-12-15T12:32:25.486Z,16.00
2018-12-15T12:34:52.898Z,16.10
2018-12-15T12:37:28.504Z,18.67
2018-12-15T12:39:56.911Z,18.80
2018-12-15T12:42:28.761Z,17.50
2018-12-15T12:44:57.250Z,18.93
2018-12-15T12:47:28.825Z,17.43
2018-12-15T12:49:59.452Z,15.20
2018-12-15T12:52:26.940Z,17.60
2018-12-15T12:54:55.273Z,17.00
2018-12-15T12:57:22.671Z,18.47
2018-12-15T12:59:52.361Z,17.27
2018-12-15T13:02:27.741Z,18.83
2018-12-15T13:07:58.903Z,19.30
2018-12-15T13:10:28.240Z,18.50
2018-12-15T13:12:55.625Z,18.93
2018-12-15T13:15:23.979Z,18.67
2018-12-15T13:17:51.379Z,16.53
2018-12-15T13:20:18.873Z,19.27
2018-12-15T13:22:46.268Z,18.20
2018-12-15T13:25:13.676Z,17.47
2018-12-15T13:27:41.118Z,20.23
2018-12-15T13:30:09.489Z,19.17
2018-12-15T13:32:36.870Z,18.87
2018-12-15T13:35:05.120Z,17.50
2018-12-15T13:37:38.391Z,17.30
2018-12-15T13:40:06.413Z,19.30
2018-12-15T13:42:33.801Z,21.00
2018-12-15T13:45:01.217Z,20.37
2018-12-15T13:47:28.608Z,17.77
2018-12-15T13:49:56.065Z,18.93
2018-12-15T13:52:23.463Z,17.70
2018-12-15T13:54:50.865Z,18.87
2018-12-15T13:57:18.276Z,20.33
2018-12-15T13:59:45.672Z,19.30
2018-12-15T14:02:13.148Z,18.43
2018-12-15T14:04:40.544Z,18.50
2018-12-15T14:07:08.858Z,19.17
2018-12-15T14:09:36.268Z,18.03
2018-12-15T14:12:03.664Z,18.20
2018-12-15T14:14:31.056Z,19.77
2018-12-15T14:16:58.457Z,20.23
2018-12-15T14:19:25.863Z,22.60
2018-12-15T14:21:53.266Z,18.50
2018-12-15T14:24:20.660Z,18.90
2018-12-15T14:26:48.058Z,18.27
2018-12-15T14:29:16.417Z,20.80
2018-12-15T14:31:43.826Z,19.67
2018-12-15T14:34:11.222Z,18.70
2018-12-15T14:36:38.623Z,21.03
2018-12-15T14:39:06.524Z,20.60
2018-12-15T14:41:33.928Z,19.13
2018-12-15T14:44:01.328Z,20.40
2018-12-15T14:46:28.745Z,17.93
2018-12-15T14:48:56.147Z,18.20
2018-12-15T14:51:23.552Z,20.57
2018-12-15T14:53:51.011Z,19.77
2018-12-15T14:56:18.452Z,23.73
2018-12-15T14:58:45.836Z,21.43
2018-12-15T15:01:13.239Z,21.53
2018-12-15T15:03:40.635Z,21.60
2018-12-15T15:06:08.049Z,21.17
2018-12-15T15:08:35.454Z,19.63
2018-12-15T15:11:02.929Z,18.90
2018-12-15T15:13:34.481Z,18.57
2018-12-15T15:15:59.720Z,18.50
2018-12-15T15:18:27.130Z,17.13
2018-12-15T15:20:54.536Z,18.67
2018-12-15T15:23:21.945Z,17.83
2018-12-15T15:25:49.325Z,19.37
2018-12-15T15:28:16.803Z,18.67
2018-12-15T15:30:44.209Z,18.83
2018-12-15T15:33:11.603Z,19.13
2018-12-15T15:35:39.055Z,18.13
2018-12-15T15:38:06.452Z,19.63
2018-12-15T15:40:33.846Z,17.03
2018-12-15T15:43:01.241Z,20.37
2018-12-15T15:45:28.636Z,18.03
2018-12-15T15:47:56.034Z,19.67
2018-12-15T15:50:23.471Z,20.20
2018-12-15T15:52:50.874Z,19.23
2018-12-15T15:55:18.605Z,20.03
2018-12-15T15:57:52.315Z,19.83
2018-12-15T16:00:19.813Z,19.90
2018-12-15T16:02:47.216Z,19.07
2018-12-15T16:05:14.662Z,19.43
2018-12-15T16:07:42.079Z,21.37
2018-12-15T16:10:09.806Z,21.43
2018-12-15T16:12:37.343Z,20.37
2018-12-15T16:15:06.464Z,22.47
2018-12-15T16:17:33.947Z,20.10
2018-12-15T16:20:01.356Z,19.73
2018-12-15T16:22:35.975Z,19.13
2018-12-15T16:25:10.119Z,19.20
2018-12-15T16:27:49.816Z,18.97
2018-12-15T16:30:18.595Z,18.83
2018-12-15T16:32:52.251Z,19.87
2018-12-15T16:35:25.961Z,21.40
2018-12-15T16:37:59.068Z,19.97
2018-12-15T16:40:33.010Z,18.67
2018-12-15T16:43:04.228Z,23.40
2018-12-15T16:45:37.289Z,19.37
2018-12-15T16:48:06.352Z,20.83
2018-12-15T16:50:37.252Z,19.30
2018-12-15T16:53:10.438Z,23.30
2018-12-15T16:55:38.105Z,21.57
2018-12-15T16:58:05.583Z,20.07
2018-12-15T17:00:32.976Z,20.60
2018-12-15T17:03:00.368Z,21.70
2018-12-15T17:05:27.773Z,21.63
2018-12-15T17:07:55.171Z,21.07
2018-12-15T17:10:22.595Z,19.83
2018-12-15T17:12:49.978Z,21.23
2018-12-15T17:15:17.376Z,21.63
2018-12-15T17:17:44.780Z,23.63
2018-12-15T17:20:12.285Z,21.40
2018-12-15T17:22:39.676Z,23.77
2018-12-15T17:25:07.477Z,20.07
2018-12-15T17:27:34.905Z,19.57
2018-12-15T17:30:02.373Z,19.10
2018-12-15T17:32:29.798Z,20.33
2018-12-15T17:34:57.191Z,20.90
2018-12-15T17:37:24.606Z,19.97
2018-12-15T17:39:52.110Z,20.13
2018-12-15T17:42:19.491Z,20.33
2018-12-15T17:44:46.904Z,20.33
2018-12-15T17:47:14.392Z,19.50
2018-12-15T17:49:41.785Z,20.67
2018-12-15T17:52:09.183Z,22.90
2018-12-15T17:54:43.261Z,19.87
2018-12-15T17:57:21.148Z,21.33
2018-12-15T17:59:53.476Z,19.47
2018-12-15T18:02:25.638Z,20.03
2018-12-15T18:04:59.427Z,19.47
2018-12-15T18:07:30.484Z,19.97
2018-12-15T18:10:05.096Z,19.17
2018-12-15T18:12:34.713Z,19.47
2018-12-15T18:15:06.095Z,22.63
2018-12-15T18:17:39.460Z,19.00
2018-12-15T18:20:14.258Z,19.43
2018-12-15T18:22:48.464Z,19.97
2018-12-15T18:25:18.726Z,20.90
2018-12-15T18:27:49.540Z,19.27
2018-12-15T18:30:21.856Z,19.57
2018-12-15T18:32:52.975Z,20.07
2018-12-15T18:35:35.292Z,19.40
2018-12-15T18:38:12.599Z,20.37
2018-12-15T18:40:45.924Z,20.00
2018-12-15T18:43:19.057Z,21.43
2018-12-15T18:45:51.224Z,22.33
2018-12-15T18:48:22.164Z,24.87
2018-12-15T18:50:53.313Z,20.83
2018-12-15T18:53:28.387Z,19.67
2018-12-15T18:56:01.570Z,21.80
2018-12-15T18:58:33.181Z,21.00
2018-12-15T19:01:07.024Z,19.67
2018-12-15T19:03:37.793Z,21.47
2018-12-15T19:06:08.677Z,21.60
2018-12-15T19:08:46.144Z,24.73
2018-12-15T19:11:20.176Z,21.40
2018-12-15T19:13:54.556Z,21.50
2018-12-15T19:16:25.327Z,22.83
2018-12-15T19:18:58.827Z,21.23
2018-12-15T19:21:33.007Z,25.00
2018-12-15T19:24:06.232Z,22.07
2018-12-15T19:26:41.045Z,20.50
2018-12-15T19:29:10.149Z,22.17
2018-12-15T19:31:41.300Z,23.83
2018-12-15T19:34:17.615Z,21.40
2018-12-15T19:36:47.989Z,21.80
2018-12-15T19:39:20.076Z,22.27
2018-12-15T19:41:51.043Z,22.10
2018-12-15T19:44:21.883Z,24.80
2018-12-15T19:46:55.616Z,24.53
2018-12-15T19:49:29.036Z,26.60
2018-12-15T19:52:01.197Z,24.20
2018-12-15T19:54:37.007Z,21.07
2018-12-15T19:57:10.087Z,23.33
2018-12-15T19:59:45.989Z,25.27
2018-12-15T20:02:16.524Z,23.97
2018-12-15T20:04:56.441Z,22.27
2018-12-15T20:07:31.481Z,21.17
2018-12-15T20:10:05.356Z,22.37
2018-12-15T20:12:39.161Z,20.67
2018-12-15T20:15:11.353Z,24.63
2018-12-15T20:17:42.864Z,24.63
2018-12-15T20:20:14.604Z,22.20
2018-12-15T20:22:45.848Z,23.73
2018-12-15T20:25:16.988Z,23.43
2018-12-15T20:27:54.657Z,24.90
2018-12-15T20:30:26.965Z,21.83
2018-12-15T20:32:58.925Z,25.67
2018-12-15T20:35:30.050Z,28.97
2018-12-15T20:38:05.896Z,22.63
2018-12-15T20:40:40.945Z,24.73
2018-12-15T20:43:14.627Z,24.10
2018-12-15T20:45:45.763Z,25.83
2018-12-15T20:48:17.775Z,24.53
2018-12-15T20:50:48.621Z,22.77
2018-12-15T20:53:20.773Z,25.73
2018-12-15T20:55:52.727Z,25.73
2018-12-15T20:58:23.845Z,24.23
2018-12-15T21:00:58.559Z,27.00
2018-12-15T21:03:32.716Z,24.40
2018-12-15T21:06:04.670Z,26.40
2018-12-15T21:08:38.572Z,23.37
2018-12-15T21:11:25.667Z,25.17
2018-12-15T21:13:57.872Z,23.90
2018-12-15T21:16:28.760Z,25.17
2018-12-15T21:19:02.736Z,27.03
2018-12-15T21:21:36.623Z,26.30
2018-12-15T21:24:07.843Z,22.27
2018-12-15T21:26:40.854Z,22.97
2018-12-15T21:29:11.800Z,25.53
2018-12-15T21:31:43.009Z,22.47
2018-12-15T21:34:14.297Z,26.77
2018-12-15T21:36:45.032Z,25.40
2018-12-15T21:39:16.052Z,23.50
2018-12-15T21:44:12.616Z,21.63
2018-12-15T21:46:45.813Z,24.17
2018-12-15T21:49:19.830Z,27.80
2018-12-15T21:51:56.100Z,23.57
2018-12-15T21:54:25.351Z,22.87
2018-12-15T21:56:56.555Z,23.07
2018-12-15T21:59:30.538Z,24.90
2018-12-15T22:02:06.858Z,25.50
2018-12-15T22:04:38.863Z,24.20
2018-12-15T22:07:13.721Z,27.33
2018-12-15T22:09:47.596Z,25.00
2018-12-15T22:12:23.527Z,25.20
2018-12-15T22:14:57.500Z,30.73
2018-12-15T22:17:38.948Z,28.47
2018-12-15T22:20:10.404Z,23.77
2018-12-15T22:22:41.697Z,24.80
2018-12-15T22:25:12.907Z,25.53
2018-12-15T22:27:46.593Z,26.43
2018-12-15T22:30:16.904Z,26.90
2018-12-15T22:32:49.160Z,26.90
2018-12-15T22:35:20.163Z,26.20
2018-12-15T22:37:51.188Z,26.53
2018-12-15T22:40:20.259Z,26.57
2018-12-15T22:45:19.381Z,29.83
2018-12-15T22:47:50.305Z,27.17
2018-12-15T22:50:28.126Z,27.80
2018-12-15T22:52:58.680Z,27.83
2018-12-15T22:55:32.379Z,26.43
2018-12-15T22:58:23.237Z,30.63
2018-12-15T23:03:51.988Z,28.73
2018-12-15T23:06:19.483Z,30.97
2018-12-15T23:08:46.980Z,28.30
2018-12-15T23:11:16.428Z,28.80
2018-12-15T23:13:43.839Z,27.77
2018-12-15T23:16:11.232Z,27.00
2018-12-15T23:18:38.675Z,27.37
2018-12-15T23:21:06.087Z,30.03
2018-12-15T23:23:33.487Z,26.80
2018-12-15T23:26:00.915Z,30.67
2018-12-15T23:28:28.317Z,29.47
2018-12-15T23:30:55.723Z,27.87
2018-12-15T23:33:33.429Z,29.03
2018-12-15T23:36:07.225Z,31.30
2018-12-15T23:38:40.999Z,30.70
2018-12-15T23:41:14.835Z,27.57
2018-12-15T23:43:56.172Z,28.67
2018-12-15T23:46:26.693Z,28.57
2018-12-15T23:48:54.094Z,29.37
2018-12-15T23:51:28.081Z,29.90
2018-12-15T23:54:01.767Z,35.30
2018-12-15T23:56:35.268Z,30.00
2018-12-15T23:59:06.197Z,32.27
